Time;durP1;ratioP1;P1;durP2;ratioP2;P2;SDS_P1;SDS_P2;PMS_P1;PMS_P2;Temp;Humidity;BMP_temperature;BMP_pressure;BME280_temperature;BME280_humidity;BME280_pressure;Samples;Min_cycle;Max_cycle;Signal;HPM_P1;HPM_P2
2021/07/20 00:02:23;;;;;;;17.50;11.77;;;22.20;99.90;;;;;;5042087;28;20440;-82
2021/07/20 00:04:52;;;;;;;14.83;11.40;;;22.20;99.90;;;;;;5038337;28;20440;-83
2021/07/20 00:07:20;;;;;;;16.37;13.17;;;22.20;99.90;;;;;;5053521;28;20453;-84
2021/07/20 00:09:48;;;;;;;14.53;12.07;;;22.20;99.90;;;;;;5055668;28;20481;-83
2021/07/20 00:12:17;;;;;;;17.10;11.90;;;22.20;99.90;;;;;;5055468;28;20501;-84
2021/07/20 00:14:45;;;;;;;14.87;10.73;;;22.10;99.90;;;;;;5056324;28;20946;-83
2021/07/20 00:17:13;;;;;;;17.63;12.83;;;22.10;99.90;;;;;;5054832;28;20522;-81
2021/07/20 00:19:41;;;;;;;14.30;12.10;;;22.10;99.90;;;;;;5037956;28;20503;-83
2021/07/20 00:22:11;;;;;;;14.20;11.90;;;22.10;99.90;;;;;;5057136;28;20446;-81
2021/07/20 00:24:39;;;;;;;12.83;10.77;;;22.00;99.90;;;;;;5056961;28;20444;-83
2021/07/20 00:27:07;;;;;;;14.67;11.00;;;22.00;99.90;;;;;;5053697;28;20460;-84
2021/07/20 00:29:36;;;;;;;17.27;12.60;;;22.00;99.90;;;;;;5056059;28;20532;-82
2021/07/20 00:32:04;;;;;;;21.80;11.10;;;21.90;99.90;;;;;;5056085;28;20472;-82
2021/07/20 00:34:33;;;;;;;15.90;11.93;;;21.90;99.90;;;;;;5056690;28;20445;-82
2021/07/20 00:37:01;;;;;;;14.07;10.90;;;21.90;99.90;;;;;;5037654;28;20783;-84
2021/07/20 00:39:30;;;;;;;13.03;10.50;;;21.90;99.90;;;;;;5037205;28;20521;-83
2021/07/20 00:41:58;;;;;;;16.90;11.80;;;21.90;99.90;;;;;;5055383;28;20853;-84
2021/07/20 00:44:27;;;;;;;14.77;11.97;;;21.90;99.90;;;;;;5055601;28;20437;-83
2021/07/20 00:46:55;;;;;;;14.17;10.23;;;21.80;99.90;;;;;;5053893;28;20849;-83
2021/07/20 00:49:23;;;;;;;18.07;12.70;;;21.80;99.90;;;;;;5055720;28;20484;-82
2021/07/20 00:51:51;;;;;;;14.47;11.13;;;21.80;99.90;;;;;;5055648;28;20480;-83
2021/07/20 00:54:19;;;;;;;16.47;10.97;;;21.80;99.90;;;;;;5037058;28;20452;-84
2021/07/20 00:56:49;;;;;;;15.13;11.00;;;21.70;99.90;;;;;;5055514;28;20440;-84
2021/07/20 00:59:18;;;;;;;14.43;10.87;;;21.70;99.90;;;;;;5051293;28;20482;-83
2021/07/20 01:01:46;;;;;;;18.17;11.47;;;21.70;99.90;;;;;;5053172;28;20960;-82
2021/07/20 01:04:16;;;;;;;17.70;11.40;;;21.70;99.90;;;;;;5053360;28;20978;-82
2021/07/20 01:06:47;;;;;;;13.73;10.20;;;21.60;99.90;;;;;;5047470;28;20453;-82
2021/07/20 01:09:15;;;;;;;12.83;10.50;;;21.60;99.90;;;;;;5055579;28;20431;-83
2021/07/20 01:11:44;;;;;;;13.27;11.50;;;21.60;99.90;;;;;;5054699;28;20467;-83
2021/07/20 01:14:14;;;;;;;16.00;10.77;;;21.50;99.90;;;;;;5054409;28;20508;-84
2021/07/20 01:16:44;;;;;;;14.83;10.97;;;21.50;99.90;;;;;;5052669;28;20441;-83
2021/07/20 01:19:15;;;;;;;14.73;10.50;;;21.50;99.90;;;;;;5053606;28;20527;-84
2021/07/20 01:21:44;;;;;;;14.60;10.70;;;21.50;99.90;;;;;;5055240;28;20944;-83
2021/07/20 01:24:16;;;;;;;13.13;10.10;;;21.50;99.90;;;;;;5054099;28;20453;-83
2021/07/20 01:26:45;;;;;;;15.73;10.83;;;21.40;99.90;;;;;;5035775;28;20522;-83
2021/07/20 01:29:15;;;;;;;14.23;10.97;;;21.40;99.90;;;;;;5034917;28;20509;-83
2021/07/20 01:31:45;;;;;;;14.83;12.20;;;21.40;99.90;;;;;;5049818;28;21035;-83
2021/07/20 01:34:14;;;;;;;13.27;9.97;;;21.30;99.90;;;;;;5035385;28;20450;-82
2021/07/20 01:36:46;;;;;;;17.00;10.70;;;21.30;99.90;;;;;;5053363;28;20455;-81
2021/07/20 01:39:17;;;;;;;15.00;9.93;;;21.30;99.90;;;;;;5053703;28;20947;-81
2021/07/20 01:41:47;;;;;;;13.73;10.53;;;21.20;99.90;;;;;;5053372;28;20502;-81
2021/07/20 01:44:16;;;;;;;14.43;10.63;;;21.20;99.90;;;;;;5044835;28;20509;-81
2021/07/20 01:46:45;;;;;;;13.90;10.63;;;21.20;99.90;;;;;;5053513;28;20443;-81
2021/07/20 01:49:16;;;;;;;17.10;11.17;;;21.20;99.90;;;;;;5051037;28;20513;-82
2021/07/20 01:51:45;;;;;;;14.90;10.87;;;21.10;99.90;;;;;;5051848;28;21034;-81
2021/07/20 01:54:13;;;;;;;15.77;11.57;;;21.10;99.90;;;;;;5056407;28;21014;-83
2021/07/20 01:56:43;;;;;;;15.27;12.17;;;21.10;99.90;;;;;;5056887;28;20520;-81
2021/07/20 01:59:11;;;;;;;15.30;11.07;;;21.10;99.90;;;;;;5055163;28;20443;-81
2021/07/20 02:01:47;;;;;;;16.70;10.40;;;21.10;99.90;;;;;;5054707;28;20455;-81
2021/07/20 02:04:37;;;;;;;15.83;10.67;;;21.00;99.90;;;;;;5038052;28;20459;-82
2021/07/20 02:09:55;;;;;;;13.40;9.50;;;21.00;99.90;;;;;;5037114;28;20478;-81
2021/07/20 02:12:32;;;;;;;15.27;11.37;;;21.00;99.90;;;;;;5054268;28;20491;-83
2021/07/20 02:15:03;;;;;;;13.23;9.13;;;21.00;99.90;;;;;;5055694;28;20951;-81
2021/07/20 02:17:33;;;;;;;14.90;11.03;;;20.90;99.90;;;;;;5054526;28;20444;-83
2021/07/20 02:20:07;;;;;;;15.80;11.23;;;20.90;99.90;;;;;;5037838;28;20475;-82
2021/07/20 02:22:37;;;;;;;13.47;10.87;;;20.90;99.90;;;;;;5037792;28;20497;-83
2021/07/20 02:25:07;;;;;;;16.13;11.47;;;20.90;99.90;;;;;;5055699;28;20459;-82
2021/07/20 02:27:38;;;;;;;14.47;11.10;;;20.80;99.90;;;;;;5037561;28;20954;-83
2021/07/20 02:30:10;;;;;;;13.60;10.10;;;20.80;99.90;;;;;;5055344;28;20479;-83
2021/07/20 02:32:39;;;;;;;14.20;10.47;;;20.80;99.90;;;;;;5055494;28;20475;-83
2021/07/20 02:35:10;;;;;;;18.00;12.73;;;20.80;99.90;;;;;;5054859;28;20470;-81
2021/07/20 02:37:41;;;;;;;13.80;10.20;;;20.70;99.90;;;;;;5055468;28;20443;-83
2021/07/20 02:40:12;;;;;;;15.00;10.60;;;20.70;99.90;;;;;;5037312;28;20479;-83
2021/07/20 02:42:42;;;;;;;13.20;9.90;;;20.70;99.90;;;;;;5035143;28;20440;-82
2021/07/20 02:45:12;;;;;;;12.97;9.70;;;20.70;99.90;;;;;;5047757;28;20517;-79
2021/07/20 02:47:41;;;;;;;17.33;10.73;;;20.60;99.90;;;;;;5055424;28;20478;-84
2021/07/20 02:50:12;;;;;;;25.00;15.07;;;20.60;99.90;;;;;;5055438;28;20525;-82
2021/07/20 02:52:44;;;;;;;29.70;16.53;;;20.60;99.90;;;;;;5055159;28;20455;-82
2021/07/20 02:55:13;;;;;;;16.53;11.60;;;20.60;99.90;;;;;;5053679;28;20522;-82
2021/07/20 02:57:45;;;;;;;14.30;10.13;;;20.60;99.90;;;;;;5037265;28;20990;-82
2021/07/20 03:00:14;;;;;;;15.00;10.93;;;20.50;99.90;;;;;;5016775;28;20472;-83
2021/07/20 03:02:46;;;;;;;11.70;8.93;;;20.50;99.90;;;;;;5051757;28;20436;-82
2021/07/20 03:05:16;;;;;;;13.07;9.50;;;20.50;99.90;;;;;;5052573;28;20448;-82
2021/07/20 03:07:48;;;;;;;15.83;11.30;;;20.40;99.90;;;;;;5054779;28;20959;-82
2021/07/20 03:10:18;;;;;;;15.10;10.50;;;20.50;99.90;;;;;;5054902;28;20806;-82
2021/07/20 03:12:49;;;;;;;14.83;10.77;;;20.40;99.90;;;;;;5055339;28;20832;-79
2021/07/20 03:15:17;;;;;;;16.90;10.30;;;20.40;99.90;;;;;;5054829;28;21017;-83
2021/07/20 03:17:47;;;;;;;14.00;9.97;;;20.40;99.90;;;;;;5054834;28;21203;-82
2021/07/20 03:20:17;;;;;;;12.23;9.90;;;20.40;99.90;;;;;;5041839;28;21045;-83
2021/07/20 03:22:46;;;;;;;18.63;11.40;;;20.40;99.90;;;;;;5037088;28;20444;-82
2021/07/20 03:25:16;;;;;;;11.60;9.00;;;20.40;99.90;;;;;;5054534;28;20448;-83
2021/07/20 03:27:44;;;;;;;13.00;9.37;;;20.30;99.90;;;;;;5050559;28;20881;-83
2021/07/20 03:30:15;;;;;;;14.90;11.10;;;20.30;99.90;;;;;;5053704;28;20513;-81
2021/07/20 03:32:45;;;;;;;13.73;9.40;;;20.30;99.90;;;;;;5051479;28;20525;-82
2021/07/20 03:35:15;;;;;;;13.73;9.10;;;20.30;99.90;;;;;;5053447;28;20470;-81
2021/07/20 03:37:44;;;;;;;12.77;9.83;;;20.30;99.90;;;;;;5051698;28;20455;-82
2021/07/20 03:40:14;;;;;;;11.93;9.57;;;20.30;99.90;;;;;;5052840;28;20882;-82
2021/07/20 03:42:43;;;;;;;13.40;9.53;;;20.30;99.90;;;;;;5052188;28;20448;-80
2021/07/20 03:45:12;;;;;;;14.27;9.73;;;20.20;99.90;;;;;;5053033;28;20853;-81
2021/07/20 03:47:43;;;;;;;13.50;10.10;;;20.20;99.90;;;;;;5052497;28;20815;-82
2021/07/20 03:50:16;;;;;;;12.60;10.07;;;20.20;99.90;;;;;;5045395;28;20471;-82
2021/07/20 03:52:45;;;;;;;12.70;10.37;;;20.20;99.90;;;;;;5052301;28;20455;-81
2021/07/20 03:55:17;;;;;;;14.87;10.20;;;20.10;99.90;;;;;;5052631;28;20452;-82
2021/07/20 03:57:46;;;;;;;13.93;9.50;;;20.10;99.90;;;;;;5052196;28;20456;-82
2021/07/20 04:00:16;;;;;;;14.10;10.10;;;20.10;99.90;;;;;;5052647;28;20517;-83
2021/07/20 04:02:50;;;;;;;13.53;10.10;;;20.10;99.90;;;;;;5033833;28;20974;-82
2021/07/20 04:05:19;;;;;;;12.23;9.63;;;20.10;99.90;;;;;;5033663;28;20447;-82
2021/07/20 04:07:49;;;;;;;13.30;9.50;;;20.10;99.90;;;;;;5053448;28;20452;-82
2021/07/20 04:10:17;;;;;;;16.03;10.17;;;20.00;99.90;;;;;;5053214;28;20881;-83
2021/07/20 04:12:47;;;;;;;14.13;12.07;;;20.00;99.90;;;;;;5052017;28;20463;-80
2021/07/20 04:15:16;;;;;;;12.67;9.63;;;20.00;99.90;;;;;;5053335;28;20427;-82
2021/07/20 04:17:46;;;;;;;12.90;9.90;;;20.10;99.90;;;;;;5035343;28;20447;-78
2021/07/20 04:20:15;;;;;;;13.00;8.97;;;20.00;99.90;;;;;;5029027;28;20475;-82
2021/07/20 04:22:45;;;;;;;14.20;10.50;;;20.00;99.90;;;;;;5057884;28;20453;-85
2021/07/20 04:25:14;;;;;;;12.30;8.80;;;20.00;99.90;;;;;;5033945;28;20546;-84
2021/07/20 04:27:43;;;;;;;14.80;9.90;;;20.00;99.90;;;;;;5040813;28;20458;-83
2021/07/20 04:30:13;;;;;;;11.80;9.53;;;20.00;99.90;;;;;;5046965;28;20479;-85
2021/07/20 04:32:45;;;;;;;18.17;10.97;;;20.00;99.90;;;;;;5066867;28;20977;-86
2021/07/20 04:35:17;;;;;;;11.93;9.33;;;20.00;99.90;;;;;;5041366;28;20475;-81
2021/07/20 04:37:46;;;;;;;13.80;10.00;;;20.00;99.90;;;;;;5052927;28;20458;-81
2021/07/20 04:40:16;;;;;;;15.47;9.13;;;19.90;99.90;;;;;;5050213;28;20475;-80
2021/07/20 04:42:46;;;;;;;10.03;8.37;;;19.80;1.00;;;;;;5051990;28;20460;-82
2021/07/20 04:45:15;;;;;;;12.60;9.57;;;19.70;1.00;;;;;;5051631;28;20491;-82
2021/07/20 04:47:44;;;;;;;15.33;10.27;;;19.70;1.00;;;;;;5053954;28;20452;-81
2021/07/20 04:50:15;;;;;;;10.30;8.53;;;19.70;1.00;;;;;;5047397;28;20472;-79
2021/07/20 04:52:45;;;;;;;11.50;8.87;;;19.70;1.00;;;;;;5053440;28;20451;-80
2021/07/20 04:55:14;;;;;;;12.23;10.13;;;19.70;1.00;;;;;;5054104;28;20465;-82
2021/07/20 04:57:43;;;;;;;12.77;8.60;;;19.80;1.00;;;;;;5042964;28;21211;-83
2021/07/20 05:00:12;;;;;;;11.07;9.23;;;19.80;1.00;;;;;;5031113;28;20472;-81
2021/07/20 05:02:42;;;;;;;12.20;8.13;;;19.80;1.00;;;;;;5055476;28;20451;-80
2021/07/20 05:05:14;;;;;;;17.90;8.90;;;19.70;1.00;;;;;;5047939;28;20509;-79
2021/07/20 05:07:44;;;;;;;11.03;9.10;;;19.70;1.00;;;;;;5045409;28;20444;-80
2021/07/20 05:10:15;;;;;;;15.47;8.17;;;19.60;1.00;;;;;;5053156;28;20471;-79
2021/07/20 05:12:44;;;;;;;11.40;8.03;;;19.60;1.00;;;;;;5050403;28;20451;-80
2021/07/20 05:15:15;;;;;;;11.67;8.87;;;19.70;1.00;;;;;;5055645;28;20504;-83
2021/07/20 05:17:44;;;;;;;11.30;8.30;;;19.80;1.00;;;;;;5056792;28;20459;-83
2021/07/20 05:20:14;;;;;;;12.57;9.73;;;19.90;1.00;;;;;;5059258;28;20517;-82
2021/07/20 05:22:45;;;;;;;18.23;9.00;;;19.90;1.00;;;;;;5039433;28;20456;-83
2021/07/20 05:25:14;;;;;;;12.83;8.10;;;20.00;1.00;;;;;;5039053;28;20470;-82
2021/07/20 05:27:46;;;;;;;14.43;8.37;;;20.00;1.00;;;;;;5062168;28;20473;-81
2021/07/20 05:30:15;;;;;;;12.40;8.70;;;20.10;1.00;;;;;;5048159;28;20497;-80
2021/07/20 05:32:46;;;;;;;12.43;8.93;;;20.10;1.00;;;;;;5062671;28;20451;-82
2021/07/20 05:35:15;;;;;;;11.13;8.57;;;20.10;1.00;;;;;;5064480;28;20459;-84
2021/07/20 05:37:45;;;;;;;9.30;8.30;;;20.10;1.00;;;;;;5044919;28;20799;-82
2021/07/20 05:40:15;;;;;;;13.50;8.40;;;20.10;1.00;;;;;;5061186;28;20475;-86
2021/07/20 05:42:45;;;;;;;12.13;9.47;;;20.00;1.00;;;;;;5048853;28;20444;-85
2021/07/20 05:45:15;;;;;;;14.10;8.37;;;20.00;1.00;;;;;;5041900;28;20518;-82
2021/07/20 05:47:49;;;;;;;11.70;8.53;;;20.10;1.00;;;;;;5038635;28;20501;-81
2021/07/20 05:50:19;;;;;;;10.53;8.70;;;20.20;1.00;;;;;;5048460;28;20467;-83
2021/07/20 05:52:51;;;;;;;12.87;8.40;;;20.20;1.00;;;;;;5057205;28;20444;-82
2021/07/20 05:55:21;;;;;;;11.63;7.57;;;20.20;1.00;;;;;;5057649;28;20471;-82
2021/07/20 05:57:50;;;;;;;13.27;8.70;;;20.30;1.00;;;;;;5059094;28;20463;-83
2021/07/20 06:00:22;;;;;;;11.83;8.83;;;20.30;1.00;;;;;;5039533;28;20475;-82
2021/07/20 06:02:51;;;;;;;14.00;9.00;;;20.30;1.00;;;;;;5041469;28;20464;-82
2021/07/20 06:05:21;;;;;;;11.00;8.40;;;20.40;1.00;;;;;;5047807;28;20448;-81
2021/07/20 06:07:50;;;;;;;10.20;7.67;;;20.40;1.00;;;;;;5053270;28;20455;-82
2021/07/20 06:10:20;;;;;;;12.60;8.30;;;20.40;1.00;;;;;;5062943;28;20461;-83
2021/07/20 06:12:50;;;;;;;10.87;8.47;;;20.40;99.90;;;;;;5049633;28;20448;-83
2021/07/20 06:15:19;;;;;;;11.37;8.50;;;20.50;99.90;;;;;;5040805;28;21044;-81
2021/07/20 06:17:47;;;;;;;11.10;7.70;;;20.50;99.90;;;;;;5062541;28;20456;-83
2021/07/20 06:20:16;;;;;;;9.60;8.17;;;20.50;99.90;;;;;;5061160;28;20475;-83
2021/07/20 06:22:50;;;;;;;10.90;8.30;;;20.50;1.00;;;;;;5043261;28;20456;-83
2021/07/20 06:25:21;;;;;;;14.80;8.47;;;20.60;99.90;;;;;;5061010;28;20463;-86
2021/07/20 06:27:50;;;;;;;10.43;7.63;;;20.60;99.90;;;;;;5043336;28;20444;-84
2021/07/20 06:30:20;;;;;;;9.50;6.83;;;20.60;99.90;;;;;;5061468;28;20486;-82
2021/07/20 06:32:49;;;;;;;9.83;7.30;;;20.60;99.90;;;;;;5040513;28;20445;-84
2021/07/20 06:35:18;;;;;;;9.57;8.40;;;20.70;99.90;;;;;;5041686;28;20886;-82
2021/07/20 06:37:47;;;;;;;10.33;8.07;;;20.70;99.90;;;;;;5058611;28;20845;-81
2021/07/20 06:40:17;;;;;;;8.70;7.17;;;20.80;99.90;;;;;;5056692;28;20525;-82
2021/07/20 06:42:49;;;;;;;10.07;7.60;;;20.90;99.90;;;;;;5058242;28;21184;-83
2021/07/20 06:45:17;;;;;;;8.93;7.17;;;21.00;99.90;;;;;;5058562;28;20451;-83
2021/07/20 06:47:48;;;;;;;9.70;8.40;;;21.00;99.90;;;;;;5055449;28;20453;-82
2021/07/20 06:50:18;;;;;;;13.80;8.30;;;21.10;99.90;;;;;;5040460;28;20521;-85
2021/07/20 06:52:48;;;;;;;10.67;7.80;;;21.10;99.90;;;;;;5057974;28;20527;-84
2021/07/20 06:55:19;;;;;;;12.50;8.97;;;21.30;99.90;;;;;;5057136;28;20846;-83
2021/07/20 06:57:52;;;;;;;9.90;7.87;;;21.30;99.90;;;;;;5040375;28;20459;-81
2021/07/20 07:00:21;;;;;;;9.73;8.10;;;21.50;99.90;;;;;;5039869;28;20472;-82
2021/07/20 07:02:55;;;;;;;14.57;8.93;;;21.60;99.90;;;;;;5057262;28;20925;-83
2021/07/20 07:05:28;;;;;;;12.60;7.60;;;21.70;99.90;;;;;;5057791;28;20466;-84
2021/07/20 07:07:57;;;;;;;11.27;8.23;;;21.90;99.90;;;;;;5037880;28;20452;-82
2021/07/20 07:10:26;;;;;;;8.80;7.30;;;22.00;99.90;;;;;;5050970;28;20484;-83
2021/07/20 07:12:57;;;;;;;12.10;7.90;;;22.10;99.90;;;;;;5054506;28;21059;-84
2021/07/20 07:15:25;;;;;;;8.33;7.40;;;22.20;99.90;;;;;;5055868;28;21005;-84
2021/07/20 07:18:01;;;;;;;8.93;7.25;;;22.20;99.90;;;;;;5055999;28;20878;-82
2021/07/20 07:20:31;;;;;;;11.03;7.27;;;22.20;99.90;;;;;;5054943;28;20525;-86
2021/07/20 07:23:03;;;;;;;8.67;7.13;;;22.30;99.90;;;;;;5043427;28;20824;-82
2021/07/20 07:25:31;;;;;;;11.97;7.20;;;22.30;99.90;;;;;;5038850;28;20444;-83
2021/07/20 07:28:02;;;;;;;12.43;9.80;;;22.40;99.90;;;;;;5057509;28;20492;-84
2021/07/20 07:30:31;;;;;;;13.30;7.33;;;22.50;99.90;;;;;;5058852;28;20850;-83
2021/07/20 07:33:00;;;;;;;9.80;8.67;;;22.50;99.90;;;;;;5049660;28;20454;-84
2021/07/20 07:35:29;;;;;;;15.30;7.43;;;22.60;99.90;;;;;;5057590;28;20478;-83
2021/07/20 07:37:59;;;;;;;10.77;7.43;;;22.50;99.90;;;;;;5054920;28;20466;-84
2021/07/20 07:40:29;;;;;;;10.50;8.10;;;22.60;99.90;;;;;;5029660;28;20475;-82
2021/07/20 07:42:59;;;;;;;10.17;8.07;;;22.60;99.90;;;;;;5049674;28;20483;-82
2021/07/20 07:45:29;;;;;;;9.35;7.60;;;22.70;99.90;;;;;;5054535;28;20527;-83
2021/07/20 07:47:58;;;;;;;11.30;8.03;;;22.70;99.90;;;;;;5039170;28;20531;-82
2021/07/20 07:50:26;;;;;;;12.50;7.63;;;22.70;99.90;;;;;;5055832;28;20479;-86
2021/07/20 07:52:56;;;;;;;18.47;10.10;;;22.80;99.90;;;;;;5056354;28;20443;-84
2021/07/20 07:55:25;;;;;;;16.57;9.40;;;22.80;99.90;;;;;;5053739;28;20475;-85
2021/07/20 07:57:54;;;;;;;12.27;8.40;;;22.80;99.90;;;;;;5053602;28;20451;-84
2021/07/20 08:00:25;;;;;;;10.10;6.97;;;22.80;99.90;;;;;;5054183;28;20471;-85
2021/07/20 08:02:57;;;;;;;10.00;7.30;;;22.80;99.90;;;;;;5054979;28;21032;-85
2021/07/20 08:05:26;;;;;;;8.87;6.73;;;22.80;99.90;;;;;;5037293;28;20448;-85
2021/07/20 08:07:55;;;;;;;8.60;6.40;;;22.90;99.90;;;;;;5054769;28;20448;-85
2021/07/20 08:10:25;;;;;;;9.20;7.47;;;22.90;99.90;;;;;;5037569;28;20459;-84
2021/07/20 08:12:57;;;;;;;9.87;6.63;;;22.90;99.90;;;;;;5055791;28;20452;-84
2021/07/20 08:15:26;;;;;;;8.30;6.77;;;22.90;99.90;;;;;;5044744;28;20476;-84
2021/07/20 08:17:57;;;;;;;8.97;6.77;;;22.90;99.90;;;;;;5036762;28;20460;-84
2021/07/20 08:20:26;;;;;;;8.60;6.20;;;23.00;99.90;;;;;;5036998;28;20471;-80
2021/07/20 08:22:54;;;;;;;10.20;6.63;;;23.00;99.90;;;;;;5017435;28;20455;-84
2021/07/20 08:25:28;;;;;;;8.73;6.20;;;23.10;99.90;;;;;;5033407;28;20480;-84
2021/07/20 08:28:06;;;;;;;12.27;6.40;;;23.10;99.90;;;;;;5033436;28;20471;-84
2021/07/20 08:30:38;;;;;;;12.00;6.10;;;23.10;99.90;;;;;;5051369;28;20479;-84
2021/07/20 08:33:10;;;;;;;8.73;6.23;;;23.10;99.90;;;;;;5036691;28;20899;-85
2021/07/20 08:35:42;;;;;;;9.90;6.70;;;23.20;99.90;;;;;;5050876;28;20875;-85
2021/07/20 08:38:14;;;;;;;15.50;6.60;;;23.10;99.90;;;;;;5035560;28;20855;-85
2021/07/20 08:40:54;;;;;;;7.60;6.60;;;23.10;99.90;;;;;;5054112;28;20514;-82
2021/07/20 08:43:31;;;;;;;10.20;6.93;;;23.10;99.90;;;;;;5053632;28;20431;-84
2021/07/20 08:46:20;;;;;;;7.10;6.40;;;23.30;99.90;;;;;;5035229;28;20455;-83
2021/07/20 08:49:03;;;;;;;10.70;7.10;;;23.30;99.90;;;;;;5036602;28;20452;-84
2021/07/20 08:51:38;;;;;;;8.63;6.10;;;23.20;99.90;;;;;;5034452;28;20460;-84
2021/07/20 08:54:10;;;;;;;7.63;6.20;;;23.30;99.90;;;;;;5034128;28;20471;-86
2021/07/20 08:56:41;;;;;;;9.17;6.40;;;23.30;99.90;;;;;;5048822;28;20467;-83
2021/07/20 08:59:16;;;;;;;8.70;6.20;;;23.30;99.90;;;;;;5035045;28;20463;-84
2021/07/20 09:01:54;;;;;;;8.77;7.80;;;23.30;99.90;;;;;;5050880;28;20444;-85
2021/07/20 09:04:36;;;;;;;7.37;6.17;;;23.40;99.90;;;;;;5033505;28;20955;-86
2021/07/20 09:07:11;;;;;;;9.00;6.53;;;23.50;99.90;;;;;;5049412;28;20436;-86
2021/07/20 09:09:44;;;;;;;7.80;6.30;;;23.50;99.90;;;;;;5045805;28;20467;-85
2021/07/20 09:12:15;;;;;;;9.03;7.47;;;23.60;99.90;;;;;;5034762;28;20440;-84
2021/07/20 09:14:48;;;;;;;9.20;7.43;;;23.60;99.90;;;;;;5034862;28;20451;-84
2021/07/20 09:17:22;;;;;;;8.97;7.00;;;23.60;99.90;;;;;;5034815;28;20493;-85
2021/07/20 09:19:59;;;;;;;12.57;7.57;;;23.70;99.90;;;;;;5053014;28;20455;-84
2021/07/20 09:22:35;;;;;;;11.57;7.60;;;23.70;99.90;;;;;;5053153;28;20451;-85
2021/07/20 09:25:07;;;;;;;8.10;6.23;;;23.60;99.90;;;;;;5034676;28;20451;-84
2021/07/20 09:27:40;;;;;;;12.70;8.50;;;23.80;99.90;;;;;;5053447;28;20440;-84
2021/07/20 09:30:14;;;;;;;9.80;6.00;;;23.80;99.90;;;;;;5048695;28;21075;-83
2021/07/20 09:32:56;;;;;;;12.03;7.27;;;23.80;99.90;;;;;;5033222;28;20456;-83
2021/07/20 09:35:30;;;;;;;8.70;7.20;;;23.90;99.90;;;;;;5034141;28;20934;-84
2021/07/20 09:38:08;;;;;;;10.37;7.80;;;24.00;99.90;;;;;;5041052;28;20475;-84
2021/07/20 09:40:58;;;;;;;9.20;6.60;;;23.90;99.90;;;;;;5036313;28;20475;-84
2021/07/20 09:43:39;;;;;;;10.27;7.23;;;24.00;99.90;;;;;;5053050;28;20440;-85
2021/07/20 09:46:12;;;;;;;12.90;7.80;;;24.00;99.90;;;;;;5036032;28;20511;-85
2021/07/20 09:48:48;;;;;;;9.50;7.37;;;24.00;99.90;;;;;;5036712;28;20431;-83
2021/07/20 09:51:32;;;;;;;10.70;7.90;;;23.90;99.90;;;;;;5035694;28;20479;-85
2021/07/20 09:54:36;;;;;;;10.97;7.37;;;23.90;99.90;;;;;;5051993;28;20482;-83
2021/07/20 09:57:19;;;;;;;12.13;8.00;;;24.00;99.90;;;;;;5027729;28;20555;-84
2021/07/20 10:00:01;;;;;;;12.10;8.93;;;24.10;99.90;;;;;;5054313;28;20451;-82
2021/07/20 10:02:40;;;;;;;8.57;7.40;;;24.10;99.90;;;;;;5035944;28;20460;-82
2021/07/20 10:05:14;;;;;;;10.60;7.90;;;24.20;99.90;;;;;;5046238;28;21000;-84
2021/07/20 10:07:52;;;;;;;10.17;8.47;;;24.30;99.90;;;;;;5033156;28;20448;-84
2021/07/20 10:10:28;;;;;;;9.90;8.57;;;24.30;99.90;;;;;;5035416;28;20460;-81
2021/07/20 10:13:04;;;;;;;10.40;7.80;;;24.30;99.90;;;;;;5053433;28;20458;-83
2021/07/20 10:15:46;;;;;;;8.93;7.73;;;24.40;99.90;;;;;;5058736;28;20446;-82
2021/07/20 10:18:20;;;;;;;11.77;8.13;;;24.40;99.90;;;;;;5040094;28;20557;-83
2021/07/20 10:20:53;;;;;;;12.70;9.57;;;24.40;99.90;;;;;;5058565;28;20479;-82
2021/07/20 10:23:30;;;;;;;12.80;8.50;;;24.40;99.90;;;;;;5058752;28;20439;-84
2021/07/20 10:26:22;;;;;;;9.10;7.90;;;24.50;99.90;;;;;;5056461;28;20452;-82
2021/07/20 10:28:57;;;;;;;10.63;7.60;;;24.50;99.90;;;;;;5057784;28;20440;-83
2021/07/20 10:31:30;;;;;;;11.20;8.63;;;24.50;99.90;;;;;;5038921;28;20998;-81
2021/07/20 10:34:04;;;;;;;13.50;9.60;;;24.40;99.90;;;;;;5056373;28;20440;-84
2021/07/20 10:36:43;;;;;;;15.20;10.33;;;24.40;99.90;;;;;;5048820;28;20475;-83
2021/07/20 10:39:16;;;;;;;12.47;8.20;;;24.40;99.90;;;;;;5018991;28;20865;-83
2021/07/20 10:41:55;;;;;;;12.73;8.03;;;24.50;99.90;;;;;;5022034;28;20481;-82
2021/07/20 10:44:29;;;;;;;11.47;10.27;;;24.50;99.90;;;;;;5056682;28;20435;-82
2021/07/20 10:46:59;;;;;;;13.70;9.80;;;24.50;99.90;;;;;;5018460;28;20445;-83
2021/07/20 10:49:34;;;;;;;12.23;8.80;;;24.50;99.90;;;;;;5048731;28;20463;-83
2021/07/20 10:52:11;;;;;;;12.40;9.60;;;24.50;99.90;;;;;;5037760;28;20538;-83
2021/07/20 10:54:52;;;;;;;11.03;8.53;;;24.50;99.90;;;;;;5056635;28;20431;-83
2021/07/20 10:57:24;;;;;;;11.67;8.67;;;24.60;99.90;;;;;;5037212;28;20475;-83
2021/07/20 11:00:06;;;;;;;13.30;9.67;;;24.60;99.90;;;;;;5037791;28;20471;-83
2021/07/20 11:02:56;;;;;;;15.60;10.60;;;24.60;99.90;;;;;;5037196;28;20599;-83
2021/07/20 11:05:27;;;;;;;12.47;9.63;;;24.60;99.90;;;;;;5053844;28;20484;-83
2021/07/20 11:08:00;;;;;;;12.60;9.37;;;24.70;99.90;;;;;;5048497;28;20507;-83
2021/07/20 11:10:33;;;;;;;11.83;9.30;;;24.70;99.90;;;;;;5018654;28;20469;-83
2021/07/20 11:13:04;;;;;;;10.53;9.40;;;24.60;99.90;;;;;;5036852;28;20455;-83
2021/07/20 11:15:36;;;;;;;10.47;8.87;;;24.70;99.90;;;;;;5055170;28;20444;-81
2021/07/20 11:18:08;;;;;;;11.85;9.80;;;24.70;99.90;;;;;;5054216;28;20455;-84
2021/07/20 11:20:38;;;;;;;10.27;8.67;;;24.80;99.90;;;;;;5052914;28;20895;-86
2021/07/20 11:23:07;;;;;;;12.63;9.10;;;24.90;99.90;;;;;;5035922;28;20447;-84
2021/07/20 11:25:38;;;;;;;11.80;10.03;;;24.90;99.90;;;;;;5052412;28;20456;-84
2021/07/20 11:28:07;;;;;;;13.13;9.00;;;25.00;99.90;;;;;;5036030;28;20975;-85
2021/07/20 11:30:40;;;;;;;12.00;10.03;;;25.00;99.90;;;;;;5035590;28;20491;-83
2021/07/20 11:33:15;;;;;;;11.23;9.00;;;25.00;99.90;;;;;;5035645;28;20551;-86
2021/07/20 11:35:56;;;;;;;12.43;9.67;;;25.00;99.90;;;;;;5035092;28;20962;-84
2021/07/20 11:38:27;;;;;;;13.70;9.30;;;25.00;99.90;;;;;;5053052;28;20478;-84
2021/07/20 11:41:06;;;;;;;10.00;7.97;;;25.00;99.90;;;;;;5035375;28;20559;-84
2021/07/20 11:43:42;;;;;;;10.70;8.60;;;25.10;99.90;;;;;;5049816;28;20479;-84
2021/07/20 11:46:15;;;;;;;9.67;8.57;;;25.00;99.90;;;;;;5053821;28;20440;-84
2021/07/20 11:48:54;;;;;;;12.13;9.30;;;25.10;99.90;;;;;;5053412;28;20478;-84
2021/07/20 11:51:27;;;;;;;10.00;8.43;;;25.20;99.90;;;;;;5052313;28;21052;-82
2021/07/20 11:54:01;;;;;;;12.33;9.23;;;25.20;99.90;;;;;;5052976;28;20432;-84
2021/07/20 11:56:33;;;;;;;9.47;8.47;;;25.30;99.90;;;;;;5035571;28;20445;-84
2021/07/20 11:59:45;;;;;;;12.00;8.17;;;25.30;99.90;;;;;;5053009;28;20982;-84
2021/07/20 12:02:57;;;;;;;9.93;8.77;;;25.30;99.90;;;;;;5028234;28;20963;-84
2021/07/20 12:05:35;;;;;;;9.03;7.80;;;25.30;99.90;;;;;;5031382;28;21011;-83
2021/07/20 12:08:11;;;;;;;9.90;8.30;;;25.30;99.90;;;;;;5051799;28;20447;-84
2021/07/20 12:10:47;;;;;;;11.00;7.50;;;25.40;99.90;;;;;;5034805;28;20470;-84
2021/07/20 12:13:16;;;;;;;7.93;7.13;;;25.40;99.90;;;;;;5052732;28;20416;-84
2021/07/20 12:15:46;;;;;;;9.17;8.00;;;25.50;99.90;;;;;;5052115;28;20509;-85
2021/07/20 12:18:14;;;;;;;9.80;7.70;;;25.50;99.90;;;;;;5033502;28;20472;-84
2021/07/20 12:20:45;;;;;;;11.60;8.43;;;25.50;99.90;;;;;;5049562;28;20472;-85
2021/07/20 12:23:14;;;;;;;11.17;8.60;;;25.30;99.90;;;;;;5050965;28;20455;-85
2021/07/20 12:25:42;;;;;;;14.50;8.57;;;25.50;99.90;;;;;;5033982;28;20501;-84
2021/07/20 12:28:10;;;;;;;9.50;8.30;;;25.50;99.90;;;;;;5034261;28;20440;-83
2021/07/20 12:30:41;;;;;;;12.50;8.80;;;25.50;99.90;;;;;;5052063;28;20483;-85
2021/07/20 12:33:14;;;;;;;10.93;8.83;;;25.50;99.90;;;;;;5033691;28;20509;-84
2021/07/20 12:35:49;;;;;;;9.23;7.77;;;25.50;99.90;;;;;;5032959;28;20444;-86
2021/07/20 12:38:23;;;;;;;13.57;9.27;;;25.60;99.90;;;;;;5049097;28;21011;-85
2021/07/20 12:40:51;;;;;;;10.10;7.80;;;25.60;99.90;;;;;;5052479;28;20593;-84
2021/07/20 12:43:19;;;;;;;12.17;9.13;;;25.60;99.90;;;;;;5036893;28;20447;-85
2021/07/20 12:45:49;;;;;;;9.90;8.40;;;25.60;99.90;;;;;;5020776;28;20492;-85
2021/07/20 12:48:25;;;;;;;10.10;8.27;;;25.60;99.90;;;;;;5053171;28;20434;-85
2021/07/20 12:50:55;;;;;;;12.20;9.80;;;25.60;99.90;;;;;;5034069;28;20474;-85
2021/07/20 12:53:25;;;;;;;8.83;7.87;;;25.50;99.90;;;;;;5051350;28;20525;-83
2021/07/20 12:55:53;;;;;;;10.57;9.17;;;25.50;99.90;;;;;;5033543;28;20521;-85
2021/07/20 12:58:22;;;;;;;11.27;8.40;;;25.50;99.90;;;;;;5043481;28;20478;-84
2021/07/20 13:00:51;;;;;;;12.90;8.97;;;25.60;99.90;;;;;;5050193;28;20870;-84
2021/07/20 13:03:20;;;;;;;10.07;8.83;;;25.70;99.90;;;;;;5040333;28;20455;-83
2021/07/20 13:05:49;;;;;;;11.17;8.17;;;25.60;99.90;;;;;;5052441;28;20455;-86